Sheridan, Illinois
Current Conditions -  °F | °C
As of 10:15 AM on Thursday 27 Nov 2014 (Local Time) from KC09 Reporting Station
Overcast Overcast  
Wind Chill: 17°   Ceiling: 1600
Heat Index: 27°   Visibility: 10mi
Dew Point: 23°   Wind: 12mph
Humidity: 84%   Direction: 320°NW
Pressure: 30.36"   Gusts: 22mph
Location:  41.53°N, 88.68°W
Report Text: KC09 271615Z AUTO 32010G19KT 10SM BKN016 BKN022 OVC034 M03/M05 A3036 RMK AO2 T10271051
Loading
Personal Weather Stations






























Interactive Weather Map New forecast layout! Learn more

10-Day Weather Forecast

Advertisements
Track Severe Weather on mobile